« Back
NWS Peachtree City, Ga » Text Product » AHN Terminal Aerodrome Forecast


Printer-friendly Version
Current Version              Previous Versions:   1  2  3  4  5  6  7  8  9  

Terminal Aerodrome Forecast

494
FTAK31 PAJN 061700
TAFAHN
TAF
PAHN 061721Z 0618/0718 30008KT P6SM VCSH OVC015
     FM062100 09008KT P6SM VCSH SCT007 BKN025 OVC050
      AMD LTD TO CLD VIS AND WIND=



USA.gov is the U.S. government's official web portal to all federal, state and local government web resources and services.